Time;durP1;ratioP1;P1;durP2;ratioP2;P2;SDS_P1;SDS_P2;PMS_P1;PMS_P2;Temp;Humidity;BMP_temperature;BMP_pressure;BME280_temperature;BME280_humidity;BME280_pressure;Samples;Min_cycle;Max_cycle;Signal;HPM_P1;HPM_P2
2022/02/05 00:04:03;;;;;;;;;;;17.20;37.30;;;;;;8316921;28;19925;-52
2022/02/05 00:42:05;;;;;;;;;;;17.20;37.30;;;;;;8335492;28;20285;-51
2022/02/05 00:46:07;;;;;;;;;;;17.20;37.30;;;;;;8334464;28;19932;-51
2022/02/05 00:50:14;;;;;;;;;;;17.20;37.20;;;;;;8332144;28;19979;-54
2022/02/05 00:54:18;;;;;;;;;;;17.20;37.20;;;;;;8337455;28;20320;-54
2022/02/05 00:58:19;;;;;;;;;;;17.20;37.20;;;;;;8331546;28;19918;-54
2022/02/05 01:02:19;;;;;;;;;;;17.20;37.10;;;;;;8332236;28;20374;-52
2022/02/05 01:06:20;;;;;;;;;;;17.10;37.00;;;;;;8331665;28;20373;-54
2022/02/05 01:10:20;;;;;;;;;;;17.20;37.00;;;;;;8331190;28;19921;-56
2022/02/05 01:14:25;;;;;;;;;;;17.10;37.00;;;;;;8332012;28;19921;-54
2022/02/05 01:18:27;;;;;;;;;;;17.10;36.90;;;;;;8336270;28;19925;-55
2022/02/05 01:22:29;;;;;;;;;;;17.10;36.90;;;;;;8330922;28;20432;-56
2022/02/05 01:26:38;;;;;;;;;;;17.10;36.90;;;;;;8331143;28;19917;-55
2022/02/05 01:30:43;;;;;;;;;;;17.10;36.80;;;;;;8333655;28;19917;-53
2022/02/05 01:52:05;;;;;;;;;;;17.10;36.80;;;;;;8330624;28;19936;-55
2022/02/05 01:57:13;;;;;;;;;;;17.10;36.80;;;;;;8330073;28;20338;-53
2022/02/05 02:05:00;;;;;;;;;;;17.00;36.70;;;;;;8329265;28;19944;-53
2022/02/05 02:13:58;;;;;;;;;;;17.10;36.80;;;;;;8329839;28;19947;-53
2022/02/05 02:18:18;;;;;;;;;;;17.10;36.80;;;;;;8329908;28;20008;-55
2022/02/05 02:30:30;;;;;;;;;;;17.10;36.80;;;;;;8334206;28;19962;-53
2022/02/05 02:34:35;;;;;;;;;;;17.00;36.70;;;;;;8329424;28;19929;-54
2022/02/05 02:38:45;;;;;;;;;;;17.00;36.70;;;;;;8336801;28;19928;-53
2022/02/05 02:42:49;;;;;;;;;;;17.00;36.70;;;;;;8332625;28;19921;-55
2022/02/05 02:46:49;;;;;;;;;;;17.00;36.70;;;;;;8329277;28;19960;-55
2022/02/05 02:59:36;;;;;;;;;;;17.00;36.70;;;;;;8329897;28;20333;-54
2022/02/05 03:03:37;;;;;;;;;;;17.00;36.70;;;;;;8333631;28;19925;-54
2022/02/05 03:07:37;;;;;;;;;;;17.00;36.80;;;;;;8329173;28;19917;-56
2022/02/05 03:11:38;;;;;;;;;;;17.00;36.70;;;;;;8331424;28;19925;-51
2022/02/05 03:15:40;;;;;;;;;;;17.00;36.70;;;;;;8335631;28;19913;-52
2022/02/05 03:19:41;;;;;;;;;;;17.00;36.70;;;;;;8317114;28;19925;-54
2022/02/05 03:23:41;;;;;;;;;;;17.00;36.70;;;;;;8335462;28;20274;-54
2022/02/05 03:27:42;;;;;;;;;;;17.00;36.70;;;;;;8335023;28;19917;-55
2022/02/05 03:31:42;;;;;;;;;;;17.00;36.70;;;;;;8334420;28;19925;-53
2022/02/05 03:35:43;;;;;;;;;;;17.00;36.70;;;;;;8335207;28;19988;-55
2022/02/05 03:39:43;;;;;;;;;;;17.00;36.70;;;;;;8334756;28;19924;-53
2022/02/05 03:43:43;;;;;;;;;;;16.90;36.60;;;;;;8334008;28;19924;-54
2022/02/05 03:47:44;;;;;;;;;;;16.90;36.70;;;;;;8334514;28;19917;-55
2022/02/05 03:51:45;;;;;;;;;;;16.90;36.70;;;;;;8334337;28;20436;-53
2022/02/05 03:55:46;;;;;;;;;;;16.90;36.70;;;;;;8333952;28;19913;-54
2022/02/05 03:59:47;;;;;;;;;;;16.90;36.70;;;;;;8334070;28;19963;-55
2022/02/05 04:03:47;;;;;;;;;;;16.90;36.60;;;;;;8334224;28;19925;-53
2022/02/05 04:07:51;;;;;;;;;;;16.90;36.70;;;;;;8333535;28;20422;-54
2022/02/05 04:11:59;;;;;;;;;;;16.90;36.60;;;;;;8333909;28;19929;-53
2022/02/05 04:20:19;;;;;;;;;;;16.90;36.70;;;;;;8333096;28;19931;-55
2022/02/05 04:24:20;;;;;;;;;;;16.90;36.70;;;;;;8332639;28;19917;-54
2022/02/05 04:28:20;;;;;;;;;;;16.90;36.60;;;;;;8332657;28;19918;-54
2022/02/05 04:32:21;;;;;;;;;;;16.80;36.60;;;;;;8333015;28;19931;-54
2022/02/05 04:36:21;;;;;;;;;;;16.80;36.60;;;;;;8333388;28;19967;-52
2022/02/05 04:40:28;;;;;;;;;;;16.90;36.60;;;;;;8332353;28;19918;-53
2022/02/05 04:53:17;;;;;;;;;;;16.80;36.50;;;;;;8333140;28;20454;-53
2022/02/05 05:22:08;;;;;;;;;;;16.80;36.40;;;;;;8331208;28;19927;-53
2022/02/05 05:26:08;;;;;;;;;;;16.80;36.40;;;;;;8331457;28;20290;-53
2022/02/05 05:30:09;;;;;;;;;;;16.80;36.40;;;;;;8331300;28;19917;-53
2022/02/05 05:34:09;;;;;;;;;;;16.80;36.30;;;;;;8330029;28;19922;-53
2022/02/05 05:38:10;;;;;;;;;;;16.80;36.30;;;;;;8331000;28;19917;-52
2022/02/05 05:42:15;;;;;;;;;;;16.80;36.30;;;;;;8331098;28;19959;-51
2022/02/05 05:46:19;;;;;;;;;;;16.80;36.30;;;;;;8330717;28;19917;-52
2022/02/05 05:54:39;;;;;;;;;;;16.80;36.30;;;;;;8330925;28;19928;-54
2022/02/05 05:58:39;;;;;;;;;;;16.80;36.30;;;;;;8330040;28;20326;-51
2022/02/05 06:02:40;;;;;;;;;;;16.80;36.30;;;;;;8330351;28;19913;-53
2022/02/05 06:06:40;;;;;;;;;;;16.80;36.30;;;;;;8312869;28;19925;-53
2022/02/05 06:10:42;;;;;;;;;;;16.70;36.20;;;;;;8329779;28;20046;-53
2022/02/05 06:14:44;;;;;;;;;;;16.80;36.20;;;;;;8330314;28;19925;-53
2022/02/05 06:18:44;;;;;;;;;;;16.70;36.20;;;;;;8330249;28;19959;-54
2022/02/05 06:22:45;;;;;;;;;;;16.70;36.20;;;;;;8329687;28;20374;-52
2022/02/05 06:26:45;;;;;;;;;;;16.70;36.20;;;;;;8330199;28;19917;-54
2022/02/05 06:30:46;;;;;;;;;;;16.70;36.10;;;;;;8330055;28;19925;-52
2022/02/05 06:34:46;;;;;;;;;;;16.70;36.10;;;;;;8329271;28;20019;-51
2022/02/05 06:38:47;;;;;;;;;;;16.70;36.10;;;;;;8329800;28;20381;-53
2022/02/05 06:42:47;;;;;;;;;;;16.70;36.10;;;;;;8330028;28;20353;-52
2022/02/05 06:46:48;;;;;;;;;;;16.70;36.10;;;;;;8331957;28;19956;-51
2022/02/05 06:50:48;;;;;;;;;;;16.70;36.10;;;;;;8336131;28;20326;-51
2022/02/05 06:54:49;;;;;;;;;;;16.70;36.10;;;;;;8335914;28;19929;-55
2022/02/05 06:58:49;;;;;;;;;;;16.70;36.10;;;;;;8335362;28;19924;-52
2022/02/05 07:02:51;;;;;;;;;;;16.70;36.10;;;;;;8335755;28;19996;-54
2022/02/05 07:06:54;;;;;;;;;;;16.70;36.00;;;;;;8335896;28;19920;-52
2022/02/05 07:10:54;;;;;;;;;;;16.70;36.00;;;;;;8335201;28;19918;-54
2022/02/05 07:15:04;;;;;;;;;;;16.70;36.00;;;;;;8335261;28;20297;-54
2022/02/05 07:31:43;;;;;;;;;;;16.60;36.00;;;;;;8334617;28;19932;-55
2022/02/05 07:35:43;;;;;;;;;;;16.60;36.00;;;;;;8334900;28;19918;-53
2022/02/05 07:39:47;;;;;;;;;;;16.60;36.00;;;;;;8334532;28;19971;-54
2022/02/05 07:43:48;;;;;;;;;;;16.60;35.90;;;;;;8334234;28;20297;-51
2022/02/05 07:47:48;;;;;;;;;;;16.60;35.90;;;;;;8334547;28;19914;-51
2022/02/05 07:51:49;;;;;;;;;;;16.60;35.90;;;;;;8334370;28;19944;-54
2022/02/05 07:55:49;;;;;;;;;;;16.60;36.00;;;;;;8333754;28;19924;-54
2022/02/05 07:59:50;;;;;;;;;;;16.60;35.90;;;;;;8332969;28;20377;-52
2022/02/05 08:03:50;;;;;;;;;;;16.60;35.90;;;;;;8333968;28;19967;-51
2022/02/05 08:07:52;;;;;;;;;;;16.60;35.90;;;;;;8333646;28;19913;-56
2022/02/05 08:11:58;;;;;;;;;;;16.70;35.90;;;;;;8332830;28;19925;-53
2022/02/05 08:16:11;;;;;;;;;;;16.60;35.80;;;;;;8333381;28;19924;-51
2022/02/05 08:20:11;;;;;;;;;;;16.70;35.80;;;;;;8333114;28;20262;-52
2022/02/05 08:24:12;;;;;;;;;;;16.70;35.80;;;;;;8333423;28;19917;-53
2022/02/05 08:28:13;;;;;;;;;;;16.70;35.80;;;;;;8332913;28;19920;-53
2022/02/05 08:32:13;;;;;;;;;;;16.70;36.30;;;;;;8333049;28;19925;-55
2022/02/05 08:36:14;;;;;;;;;;;16.70;35.80;;;;;;8332967;28;19918;-53
2022/02/05 08:40:16;;;;;;;;;;;16.70;35.80;;;;;;8332315;28;19952;-53
2022/02/05 08:44:17;;;;;;;;;;;16.70;35.80;;;;;;8332920;28;19925;-50
2022/02/05 08:48:17;;;;;;;;;;;16.70;35.80;;;;;;8332148;28;20387;-55
2022/02/05 08:52:18;;;;;;;;;;;16.70;35.80;;;;;;8330606;28;20362;-54
2022/02/05 08:56:18;;;;;;;;;;;16.70;35.90;;;;;;8331853;28;20320;-54
2022/02/05 09:00:24;;;;;;;;;;;16.70;35.90;;;;;;8331706;28;19917;-51
2022/02/05 09:08:39;;;;;;;;;;;16.70;35.90;;;;;;8339069;28;19913;-56
2022/02/05 09:13:06;;;;;;;;;;;16.70;35.90;;;;;;8333863;28;19921;-54
2022/02/05 09:17:03;;;;;;;;;;;16.70;35.90;;;;;;8330990;28;19924;-54
2022/02/05 09:21:04;;;;;;;;;;;16.70;35.90;;;;;;8331558;28;20346;-54
2022/02/05 09:25:04;;;;;;;;;;;16.70;35.90;;;;;;8331546;28;19921;-54
2022/02/05 09:29:12;;;;;;;;;;;16.70;35.90;;;;;;8330709;28;20334;-52
2022/02/05 09:33:13;;;;;;;;;;;16.70;36.00;;;;;;8336520;28;19921;-51
2022/02/05 09:37:13;;;;;;;;;;;16.70;36.00;;;;;;8330596;28;20388;-54
2022/02/05 09:41:14;;;;;;;;;;;16.70;36.00;;;;;;8330916;28;19917;-52
2022/02/05 09:45:14;;;;;;;;;;;16.70;35.90;;;;;;8331000;28;19917;-52
2022/02/05 09:49:16;;;;;;;;;;;16.80;36.00;;;;;;8330249;28;20389;-52
2022/02/05 09:53:20;;;;;;;;;;;16.70;36.00;;;;;;8330683;28;19928;-53
2022/02/05 09:57:21;;;;;;;;;;;16.70;36.00;;;;;;8330620;28;19917;-53
2022/02/05 10:01:25;;;;;;;;;;;16.80;36.10;;;;;;8330011;28;19917;-51
2022/02/05 10:05:31;;;;;;;;;;;16.70;36.10;;;;;;8330403;28;20002;-55
2022/02/05 10:09:31;;;;;;;;;;;16.80;36.10;;;;;;8334632;28;19913;-53
2022/02/05 10:13:32;;;;;;;;;;;16.80;36.10;;;;;;8330041;28;19925;-52
2022/02/05 10:17:45;;;;;;;;;;;16.80;36.00;;;;;;8330360;28;19917;-54
2022/02/05 10:21:58;;;;;;;;;;;16.80;36.00;;;;;;8335013;28;19949;-54
2022/02/05 10:25:59;;;;;;;;;;;16.80;36.00;;;;;;8340472;28;19917;-52
2022/02/05 10:30:04;;;;;;;;;;;16.80;36.00;;;;;;8340989;28;19913;-50
2022/02/05 10:34:10;;;;;;;;;;;16.80;36.20;;;;;;8341029;28;19926;-54
2022/02/05 10:46:36;;;;;;;;;;;16.80;36.00;;;;;;8340141;28;20008;-55
2022/02/05 10:50:36;;;;;;;;;;;16.90;36.00;;;;;;8340801;28;20306;-55
2022/02/05 10:55:07;;;;;;;;;;;16.90;36.00;;;;;;8340216;28;19964;-54
2022/02/05 11:07:31;;;;;;;;;;;16.90;35.90;;;;;;8341501;28;19924;-51
2022/02/05 11:20:09;;;;;;;;;;;17.00;35.80;;;;;;8323827;28;20263;-50
2022/02/05 11:24:10;;;;;;;;;;;17.00;35.70;;;;;;8340601;28;19913;-54
2022/02/05 11:28:12;;;;;;;;;;;17.10;35.70;;;;;;8339570;28;19923;-52
2022/02/05 11:32:20;;;;;;;;;;;17.10;35.70;;;;;;8338454;28;19926;-55
2022/02/05 11:36:39;;;;;;;;;;;17.10;35.70;;;;;;8334961;28;19940;-55
2022/02/05 11:40:40;;;;;;;;;;;17.20;35.70;;;;;;8335368;28;19924;-54
2022/02/05 11:44:40;;;;;;;;;;;17.20;35.60;;;;;;8334828;28;20380;-52
2022/02/05 11:48:49;;;;;;;;;;;17.20;35.60;;;;;;8334627;28;19921;-55
2022/02/05 11:52:50;;;;;;;;;;;17.20;35.60;;;;;;8333704;28;19925;-55
2022/02/05 11:57:02;;;;;;;;;;;17.20;35.60;;;;;;8334492;28;20003;-52
2022/02/05 12:01:02;;;;;;;;;;;17.20;35.60;;;;;;8333936;28;20278;-56
2022/02/05 12:05:13;;;;;;;;;;;17.20;35.60;;;;;;8333674;28;19929;-54
2022/02/05 12:09:33;;;;;;;;;;;17.20;35.50;;;;;;8334191;28;19914;-53
2022/02/05 12:13:36;;;;;;;;;;;17.20;35.50;;;;;;8333167;28;19925;-53
2022/02/05 12:18:00;;;;;;;;;;;17.20;35.50;;;;;;8315801;28;19923;-53
2022/02/05 12:22:12;;;;;;;;;;;17.20;35.60;;;;;;8336399;28;19952;-51
2022/02/05 12:26:20;;;;;;;;;;;17.20;35.60;;;;;;8333109;28;20390;-53
2022/02/05 12:30:26;;;;;;;;;;;17.20;35.60;;;;;;8333108;28;19992;-53
2022/02/05 12:34:32;;;;;;;;;;;17.20;35.50;;;;;;8323947;28;19929;-52
2022/02/05 12:38:37;;;;;;;;;;;17.20;35.70;;;;;;8333213;28;20289;-51
2022/02/05 12:42:40;;;;;;;;;;;17.20;35.70;;;;;;8332712;28;19917;-50
2022/02/05 12:46:47;;;;;;;;;;;17.20;35.60;;;;;;8331475;28;19921;-53
2022/02/05 12:50:49;;;;;;;;;;;17.20;35.60;;;;;;8332570;28;19923;-55
2022/02/05 12:54:52;;;;;;;;;;;17.20;35.60;;;;;;8332631;28;19922;-50
2022/02/05 12:58:52;;;;;;;;;;;17.20;35.60;;;;;;8331740;28;19921;-53
2022/02/05 13:02:53;;;;;;;;;;;17.20;35.60;;;;;;8332046;28;19917;-53
2022/02/05 13:07:03;;;;;;;;;;;17.20;35.60;;;;;;8332023;28;20416;-53
2022/02/05 13:11:04;;;;;;;;;;;17.20;35.60;;;;;;8331325;28;19924;-51
2022/02/05 13:15:18;;;;;;;;;;;17.30;35.70;;;;;;8331872;28;20273;-50
2022/02/05 13:19:25;;;;;;;;;;;17.20;35.60;;;;;;8333611;28;19925;-54
2022/02/05 13:36:21;;;;;;;;;;;17.20;35.60;;;;;;8331328;28;19947;-50
2022/02/05 13:40:24;;;;;;;;;;;17.20;35.60;;;;;;8330514;28;20361;-53
2022/02/05 13:45:02;;;;;;;;;;;17.20;35.60;;;;;;8331236;28;19914;-52
2022/02/05 13:49:13;;;;;;;;;;;17.20;35.60;;;;;;8227296;28;19933;-53
2022/02/05 13:53:14;;;;;;;;;;;17.20;35.60;;;;;;8321151;28;20301;-53
2022/02/05 13:57:15;;;;;;;;;;;17.20;35.60;;;;;;8330127;28;20370;-53
2022/02/05 14:01:26;;;;;;;;;;;17.20;35.60;;;;;;8328614;28;19917;-50
2022/02/05 14:05:26;;;;;;;;;;;17.20;35.60;;;;;;8330710;28;19921;-52
2022/02/05 14:09:29;;;;;;;;;;;17.20;35.60;;;;;;8329664;28;20352;-53
2022/02/05 14:13:29;;;;;;;;;;;17.20;35.60;;;;;;8329957;28;19925;-53
2022/02/05 14:17:30;;;;;;;;;;;17.20;35.60;;;;;;8330242;28;19921;-51
2022/02/05 14:21:35;;;;;;;;;;;17.20;35.60;;;;;;8330158;28;19913;-54
2022/02/05 14:25:53;;;;;;;;;;;17.20;35.60;;;;;;8329854;28;19918;-53
2022/02/05 14:29:58;;;;;;;;;;;17.20;35.50;;;;;;8330418;28;19917;-50
2022/02/05 14:42:22;;;;;;;;;;;17.20;35.60;;;;;;8330173;28;19967;-49
2022/02/05 14:46:22;;;;;;;;;;;17.20;35.60;;;;;;8329473;28;20313;-53
2022/02/05 14:50:22;;;;;;;;;;;17.20;35.60;;;;;;8330012;28;19959;-52
2022/02/05 14:54:23;;;;;;;;;;;17.20;35.60;;;;;;8329491;28;20293;-48
2022/02/05 14:58:24;;;;;;;;;;;17.20;35.60;;;;;;8329133;28;19913;-51
2022/02/05 15:02:25;;;;;;;;;;;17.20;35.60;;;;;;8329984;28;19917;-53
2022/02/05 15:06:27;;;;;;;;;;;17.20;35.60;;;;;;8329836;28;19921;-51
2022/02/05 15:10:28;;;;;;;;;;;17.20;35.60;;;;;;8335532;28;19920;-52
2022/02/05 15:14:28;;;;;;;;;;;17.20;35.60;;;;;;8335641;28;20015;-53
2022/02/05 15:18:29;;;;;;;;;;;17.20;35.60;;;;;;8335533;28;19924;-50
2022/02/05 15:22:29;;;;;;;;;;;17.20;35.60;;;;;;8335022;28;20324;-52
2022/02/05 15:26:32;;;;;;;;;;;17.20;35.60;;;;;;8335441;28;19917;-52
2022/02/05 15:30:33;;;;;;;;;;;17.20;35.50;;;;;;8335653;28;20381;-51
2022/02/05 15:34:33;;;;;;;;;;;17.20;35.50;;;;;;8334551;28;19939;-51
2022/02/05 15:38:46;;;;;;;;;;;17.20;36.10;;;;;;8335049;28;19921;-53
2022/02/05 15:47:07;;;;;;;;;;;17.20;35.50;;;;;;8334091;28;19924;-54
2022/02/05 15:51:08;;;;;;;;;;;17.20;35.50;;;;;;8317006;28;20428;-54
2022/02/05 15:55:10;;;;;;;;;;;17.20;35.50;;;;;;8334016;28;19929;-53
2022/02/05 15:59:15;;;;;;;;;;;17.20;35.50;;;;;;8334520;28;19922;-54
2022/02/05 16:03:16;;;;;;;;;;;17.20;35.50;;;;;;8333910;28;19921;-53
2022/02/05 16:07:16;;;;;;;;;;;17.20;35.40;;;;;;8333527;28;19939;-53
2022/02/05 16:11:17;;;;;;;;;;;17.10;35.40;;;;;;8334115;28;19943;-50
2022/02/05 16:15:18;;;;;;;;;;;17.20;35.40;;;;;;8315966;28;20373;-52
2022/02/05 16:19:19;;;;;;;;;;;17.20;35.40;;;;;;8332623;28;19925;-53
2022/02/05 16:23:20;;;;;;;;;;;17.10;35.40;;;;;;8333790;28;20058;-55
2022/02/05 16:27:24;;;;;;;;;;;17.10;35.40;;;;;;8333601;28;20263;-55
2022/02/05 16:31:24;;;;;;;;;;;17.10;35.40;;;;;;8333076;28;19920;-53
2022/02/05 16:35:31;;;;;;;;;;;17.10;35.30;;;;;;8333165;28;19925;-52
2022/02/05 16:39:32;;;;;;;;;;;17.10;35.30;;;;;;8337200;28;19925;-49
2022/02/05 16:43:33;;;;;;;;;;;17.10;35.30;;;;;;8332435;28;19917;-53
2022/02/05 16:47:34;;;;;;;;;;;17.10;35.30;;;;;;8332719;28;20362;-53
2022/02/05 16:51:35;;;;;;;;;;;17.10;35.30;;;;;;8332951;28;20051;-53
2022/02/05 16:55:36;;;;;;;;;;;17.10;35.30;;;;;;8332160;28;20340;-50
2022/02/05 16:59:36;;;;;;;;;;;17.10;35.30;;;;;;8332737;28;19921;-53
2022/02/05 17:03:37;;;;;;;;;;;17.10;35.30;;;;;;8331361;28;19921;-54
2022/02/05 17:07:39;;;;;;;;;;;17.10;35.30;;;;;;8331918;28;19924;-55
2022/02/05 17:11:40;;;;;;;;;;;17.10;35.40;;;;;;8332099;28;19914;-54
2022/02/05 17:15:40;;;;;;;;;;;17.10;35.30;;;;;;8332023;28;20392;-53
2022/02/05 17:19:44;;;;;;;;;;;17.10;35.30;;;;;;8331484;28;19967;-52
2022/02/05 17:23:45;;;;;;;;;;;17.00;35.30;;;;;;8332020;28;20012;-53
2022/02/05 17:27:46;;;;;;;;;;;17.00;35.30;;;;;;8331646;28;19945;-51
2022/02/05 17:31:46;;;;;;;;;;;17.00;35.30;;;;;;8313393;28;19975;-54
2022/02/05 17:35:50;;;;;;;;;;;17.00;35.20;;;;;;8331737;28;20015;-51
2022/02/05 17:39:50;;;;;;;;;;;17.00;35.20;;;;;;8313808;28;19987;-55
2022/02/05 17:43:51;;;;;;;;;;;17.00;35.20;;;;;;8330760;28;19917;-51
2022/02/05 17:47:51;;;;;;;;;;;17.00;35.20;;;;;;8331300;28;19917;-55
2022/02/05 17:51:52;;;;;;;;;;;17.00;35.20;;;;;;8331047;28;19936;-51
2022/02/05 17:55:53;;;;;;;;;;;17.00;35.20;;;;;;8330474;28;19921;-52
2022/02/05 17:59:54;;;;;;;;;;;17.00;35.20;;;;;;8330823;28;19917;-52
2022/02/05 18:03:54;;;;;;;;;;;17.00;35.30;;;;;;8330569;28;19957;-53
2022/02/05 18:12:09;;;;;;;;;;;17.00;35.20;;;;;;8330776;28;19913;-53
2022/02/05 18:16:09;;;;;;;;;;;17.00;35.20;;;;;;8329926;28;19918;-53
2022/02/05 18:20:10;;;;;;;;;;;17.00;35.20;;;;;;8329969;28;20381;-53
2022/02/05 18:24:12;;;;;;;;;;;17.00;35.20;;;;;;8330222;28;20016;-53
2022/02/05 18:28:13;;;;;;;;;;;17.00;35.20;;;;;;8329422;28;19918;-51
2022/02/05 18:32:14;;;;;;;;;;;17.00;35.20;;;;;;8330354;28;20395;-53
2022/02/05 18:36:14;;;;;;;;;;;16.90;35.20;;;;;;8329475;28;19917;-51
2022/02/05 18:40:20;;;;;;;;;;;17.00;35.20;;;;;;8329235;28;19917;-50
2022/02/05 18:44:20;;;;;;;;;;;16.90;35.20;;;;;;8334872;28;19978;-51
2022/02/05 18:48:21;;;;;;;;;;;16.90;35.20;;;;;;8336610;28;19933;-53
2022/02/05 18:52:21;;;;;;;;;;;16.90;35.20;;;;;;8335617;28;20384;-55
2022/02/05 18:56:24;;;;;;;;;;;16.90;35.20;;;;;;8335944;28;20052;-53
2022/02/05 19:00:29;;;;;;;;;;;16.90;35.20;;;;;;8335798;28;19917;-53
2022/02/05 19:09:58;;;;;;;;;;;16.90;35.10;;;;;;8335433;28;19921;-53
2022/02/05 19:21:43;;;;;;;;;;;16.90;35.10;;;;;;8336069;28;20059;-51
2022/02/05 19:25:44;;;;;;;;;;;16.90;35.20;;;;;;8334683;28;19917;-50
2022/02/05 19:29:45;;;;;;;;;;;16.90;35.20;;;;;;8335028;28;19963;-53
2022/02/05 19:33:45;;;;;;;;;;;16.90;35.20;;;;;;8334860;28;19925;-50
2022/02/05 19:37:46;;;;;;;;;;;16.90;35.10;;;;;;8334342;28;19924;-53
2022/02/05 19:41:47;;;;;;;;;;;16.80;35.10;;;;;;8334850;28;19924;-53
2022/02/05 19:45:55;;;;;;;;;;;16.90;35.10;;;;;;8316806;28;19975;-53
2022/02/05 19:49:56;;;;;;;;;;;16.90;35.20;;;;;;8334608;28;20362;-51
2022/02/05 19:53:57;;;;;;;;;;;16.80;35.10;;;;;;8332826;28;20024;-53
2022/02/05 19:57:57;;;;;;;;;;;16.90;35.10;;;;;;8334133;28;19996;-54
2022/02/05 20:01:59;;;;;;;;;;;16.90;35.70;;;;;;8333255;28;19945;-54
2022/02/05 20:06:11;;;;;;;;;;;16.80;35.10;;;;;;8326983;28;19959;-53
2022/02/05 20:10:11;;;;;;;;;;;16.80;35.10;;;;;;8335996;28;20404;-52
2022/02/05 20:14:12;;;;;;;;;;;16.80;35.10;;;;;;8333794;28;20016;-53
2022/02/05 20:18:16;;;;;;;;;;;16.80;35.10;;;;;;8333493;28;20285;-51
2022/02/05 20:22:19;;;;;;;;;;;16.80;35.00;;;;;;8333524;28;20004;-52
2022/02/05 20:26:20;;;;;;;;;;;16.80;35.10;;;;;;8333527;28;20357;-52
2022/02/05 20:30:23;;;;;;;;;;;16.80;35.10;;;;;;8333453;28;19924;-54
2022/02/05 20:34:24;;;;;;;;;;;16.80;35.10;;;;;;8332362;28;19928;-52
2022/02/05 20:38:24;;;;;;;;;;;16.80;35.10;;;;;;8332868;28;19913;-53
2022/02/05 20:42:25;;;;;;;;;;;16.80;35.10;;;;;;8333119;28;19940;-53
2022/02/05 20:46:29;;;;;;;;;;;16.80;35.10;;;;;;8332214;28;19975;-54
2022/02/05 20:50:31;;;;;;;;;;;16.80;35.10;;;;;;8332660;28;19918;-52
2022/02/05 20:54:36;;;;;;;;;;;16.80;35.00;;;;;;8332506;28;19929;-52
2022/02/05 20:58:36;;;;;;;;;;;16.80;35.10;;;;;;8331878;28;19967;-54
2022/02/05 21:02:37;;;;;;;;;;;16.70;35.00;;;;;;8332367;28;20309;-54
2022/02/05 21:06:38;;;;;;;;;;;16.70;35.00;;;;;;8331663;28;20271;-53
2022/02/05 21:10:38;;;;;;;;;;;16.80;35.00;;;;;;8331400;28;20325;-53
2022/02/05 21:14:38;;;;;;;;;;;16.70;35.00;;;;;;8331768;28;20296;-52
2022/02/05 21:18:44;;;;;;;;;;;16.80;35.00;;;;;;8331853;28;19921;-52
2022/02/05 21:22:45;;;;;;;;;;;16.70;35.00;;;;;;8331244;28;19921;-52
2022/02/05 21:26:46;;;;;;;;;;;16.70;34.90;;;;;;8331314;28;19917;-52
2022/02/05 21:30:55;;;;;;;;;;;16.70;35.00;;;;;;8313542;28;20024;-52
2022/02/05 21:34:57;;;;;;;;;;;16.70;34.90;;;;;;8331127;28;20325;-50
2022/02/05 21:38:58;;;;;;;;;;;16.70;34.90;;;;;;8331104;28;19913;-51
2022/02/05 21:42:59;;;;;;;;;;;16.70;34.90;;;;;;8331209;28;19925;-53
2022/02/05 21:47:01;;;;;;;;;;;16.70;34.90;;;;;;8330392;28;19954;-52
2022/02/05 21:51:06;;;;;;;;;;;16.70;34.90;;;;;;8330745;28;20323;-50
2022/02/05 21:55:13;;;;;;;;;;;16.70;35.00;;;;;;8330300;28;19921;-53
2022/02/05 21:59:14;;;;;;;;;;;16.60;34.90;;;;;;8306926;28;19960;-53
2022/02/05 22:03:20;;;;;;;;;;;16.60;34.90;;;;;;8330478;28;19921;-54
2022/02/05 22:07:20;;;;;;;;;;;16.60;35.00;;;;;;8329928;28;20016;-51
2022/02/05 22:11:20;;;;;;;;;;;16.60;34.90;;;;;;8330278;28;19917;-52
2022/02/05 22:15:21;;;;;;;;;;;16.60;34.90;;;;;;8330300;28;19936;-53
2022/02/05 22:19:21;;;;;;;;;;;16.60;34.90;;;;;;8328910;28;19918;-50
2022/02/05 22:23:22;;;;;;;;;;;16.60;35.00;;;;;;8330291;28;19920;-51
2022/02/05 22:27:22;;;;;;;;;;;16.60;34.90;;;;;;8330483;28;19965;-49
2022/02/05 22:31:23;;;;;;;;;;;16.60;34.90;;;;;;8329974;28;19917;-52
2022/02/05 22:35:23;;;;;;;;;;;16.60;34.90;;;;;;8329642;28;20427;-52
2022/02/05 22:39:24;;;;;;;;;;;16.50;34.80;;;;;;8329733;28;20297;-53
2022/02/05 22:43:24;;;;;;;;;;;16.60;34.90;;;;;;8329560;28;20353;-49
2022/02/05 22:47:25;;;;;;;;;;;16.50;34.80;;;;;;8329944;28;19918;-54
2022/02/05 22:51:27;;;;;;;;;;;16.60;34.90;;;;;;8329484;28;19918;-54
2022/02/05 22:55:28;;;;;;;;;;;16.60;34.80;;;;;;8329064;28;19940;-52
2022/02/05 22:59:28;;;;;;;;;;;16.60;34.80;;;;;;8311649;28;19921;-53
2022/02/05 23:03:29;;;;;;;;;;;16.50;34.80;;;;;;8328110;28;20374;-52
2022/02/05 23:07:29;;;;;;;;;;;16.50;34.80;;;;;;8329078;28;19928;-50
2022/02/05 23:12:11;;;;;;;;;;;16.50;35.30;;;;;;8329905;28;19921;-52
2022/02/05 23:42:10;;;;;;;;;;;16.40;34.70;;;;;;8319624;28;19986;-52
2022/02/05 23:46:11;;;;;;;;;;;16.40;34.80;;;;;;8335924;28;19932;-52
2022/02/05 23:50:12;;;;;;;;;;;16.40;34.70;;;;;;8334702;28;20039;-52
2022/02/05 23:54:13;;;;;;;;;;;16.40;34.80;;;;;;8334527;28;19936;-50
2022/02/05 23:58:14;;;;;;;;;;;16.40;34.80;;;;;;8333700;28;20329;-51
